Time;durP1;ratioP1;P1;durP2;ratioP2;P2;SDS_P1;SDS_P2;PMS_P1;PMS_P2;Temp;Humidity;BMP_temperature;BMP_pressure;BME280_temperature;BME280_humidity;BME280_pressure;Samples;Min_cycle;Max_cycle;Signal;HPM_P1;HPM_P2
2021/05/07 00:00:35;;;;;;;17.20;13.20;;;8.70;81.10;;;;;;5074345;28;20979;-68
2021/05/07 00:03:01;;;;;;;14.03;12.80;;;8.50;82.30;;;;;;5074447;28;20865;-68
2021/05/07 00:05:27;;;;;;;13.93;12.50;;;8.40;83.50;;;;;;5074583;28;20448;-68
2021/05/07 00:07:54;;;;;;;14.80;13.40;;;8.30;83.80;;;;;;5074910;28;20445;-68
2021/05/07 00:10:21;;;;;;;14.70;13.30;;;8.30;84.30;;;;;;5074131;28;20990;-68
2021/05/07 00:12:48;;;;;;;16.20;14.63;;;8.10;85.20;;;;;;5074442;28;20451;-68
2021/05/07 00:15:14;;;;;;;15.80;14.30;;;8.10;86.40;;;;;;5074438;28;20459;-68
2021/05/07 00:17:41;;;;;;;17.07;14.67;;;7.90;87.20;;;;;;5074295;28;20491;-68
2021/05/07 00:20:09;;;;;;;17.30;15.50;;;7.90;88.20;;;;;;5073730;28;20926;-69
2021/05/07 00:22:37;;;;;;;17.27;15.57;;;7.80;88.70;;;;;;5074240;28;20446;-68
2021/05/07 00:25:03;;;;;;;17.47;15.70;;;7.90;89.20;;;;;;5074210;28;20452;-68
2021/05/07 00:27:30;;;;;;;20.43;16.07;;;7.80;89.10;;;;;;5074392;28;20444;-68
2021/05/07 00:29:56;;;;;;;17.93;16.00;;;7.80;89.30;;;;;;5073972;28;20969;-68
2021/05/07 00:32:22;;;;;;;17.93;16.13;;;7.70;89.40;;;;;;5074069;28;20449;-68
2021/05/07 00:34:49;;;;;;;17.00;15.20;;;7.80;89.50;;;;;;5073679;28;20935;-68
2021/05/07 00:37:15;;;;;;;16.77;15.10;;;7.80;89.40;;;;;;5073941;28;20447;-68
2021/05/07 00:39:41;;;;;;;18.17;15.47;;;7.80;89.40;;;;;;5073841;28;20547;-68
2021/05/07 00:42:09;;;;;;;19.70;15.97;;;7.90;89.00;;;;;;5073595;28;20469;-68
2021/05/07 00:44:36;;;;;;;16.73;15.03;;;8.00;88.50;;;;;;5073601;28;20887;-68
2021/05/07 00:47:04;;;;;;;17.17;15.10;;;8.00;88.00;;;;;;5073877;28;20498;-68
2021/05/07 00:49:32;;;;;;;16.50;14.73;;;8.00;87.80;;;;;;5073859;28;20445;-68
2021/05/07 00:52:00;;;;;;;18.40;14.27;;;8.00;87.40;;;;;;5073530;28;20472;-68
2021/05/07 00:54:26;;;;;;;16.37;14.67;;;8.00;87.40;;;;;;5073740;28;20455;-68
2021/05/07 00:56:52;;;;;;;18.70;15.00;;;8.10;87.80;;;;;;5073694;28;20437;-68
2021/05/07 00:59:18;;;;;;;16.10;14.00;;;8.10;87.20;;;;;;5073300;28;21020;-68
2021/05/07 01:01:45;;;;;;;14.40;13.00;;;8.10;87.50;;;;;;5073560;28;20468;-68
2021/05/07 01:04:11;;;;;;;15.63;14.13;;;8.10;87.70;;;;;;5073279;28;20448;-68
2021/05/07 01:06:37;;;;;;;16.07;14.40;;;8.00;87.60;;;;;;5073569;28;20951;-68
2021/05/07 01:09:05;;;;;;;15.40;13.80;;;7.90;88.20;;;;;;5073617;28;20452;-68
2021/05/07 01:11:31;;;;;;;15.53;13.93;;;8.00;88.60;;;;;;5073482;28;20488;-68
2021/05/07 01:13:58;;;;;;;17.70;14.07;;;8.00;88.60;;;;;;5073230;28;20449;-68
2021/05/07 01:16:24;;;;;;;16.07;14.37;;;8.00;89.00;;;;;;5073972;28;20444;-68
2021/05/07 01:18:50;;;;;;;18.70;16.70;;;7.90;89.30;;;;;;5073081;28;20480;-68
2021/05/07 01:21:17;;;;;;;20.03;16.20;;;7.80;90.40;;;;;;5073372;28;20460;-68
2021/05/07 01:23:44;;;;;;;18.90;16.90;;;7.70;90.40;;;;;;5073133;28;20934;-68
2021/05/07 01:26:10;;;;;;;20.50;18.13;;;7.70;90.40;;;;;;5073423;28;20444;-68
2021/05/07 01:28:37;;;;;;;23.10;20.23;;;7.70;90.50;;;;;;5073158;28;20459;-68
2021/05/07 01:31:03;;;;;;;21.23;19.03;;;7.70;90.60;;;;;;5074129;28;20460;-68
2021/05/07 01:33:30;;;;;;;22.50;20.20;;;7.60;90.90;;;;;;5077549;28;20452;-68
2021/05/07 01:35:56;;;;;;;22.70;20.37;;;7.60;91.20;;;;;;5077950;28;20444;-68
2021/05/07 01:38:24;;;;;;;27.87;22.20;;;7.60;91.20;;;;;;5077060;28;21016;-68
2021/05/07 01:40:51;;;;;;;25.13;21.80;;;7.60;91.40;;;;;;5077386;28;20464;-68
2021/05/07 01:43:18;;;;;;;31.30;24.17;;;7.60;91.40;;;;;;5077003;28;20997;-68
2021/05/07 01:45:47;;;;;;;32.60;24.60;;;7.60;91.40;;;;;;5076962;28;20947;-68
2021/05/07 01:48:14;;;;;;;25.33;22.27;;;7.60;91.60;;;;;;5077317;28;20458;-68
2021/05/07 01:50:41;;;;;;;25.07;22.47;;;7.50;91.70;;;;;;5076730;28;20985;-68
2021/05/07 01:53:08;;;;;;;29.00;24.10;;;7.50;91.70;;;;;;5077110;28;20447;-68
2021/05/07 01:55:37;;;;;;;26.77;22.87;;;7.50;91.80;;;;;;5077530;28;20436;-69
2021/05/07 01:58:05;;;;;;;26.47;23.00;;;7.50;91.80;;;;;;5077036;28;20837;-68
2021/05/07 02:00:32;;;;;;;32.80;24.93;;;7.40;91.70;;;;;;5076994;28;20469;-68
2021/05/07 02:03:00;;;;;;;27.00;22.90;;;7.40;91.60;;;;;;5077020;28;20444;-68
2021/05/07 02:05:28;;;;;;;26.10;23.30;;;7.40;91.70;;;;;;5076888;28;20448;-69
2021/05/07 02:07:55;;;;;;;28.57;24.73;;;7.30;91.60;;;;;;5076874;28;20451;-69
2021/05/07 02:10:24;;;;;;;27.60;23.67;;;7.20;91.80;;;;;;5076756;28;20465;-68
2021/05/07 02:12:52;;;;;;;27.70;24.60;;;7.30;91.90;;;;;;5076741;28;20441;-69
2021/05/07 02:15:20;;;;;;;25.17;21.70;;;7.20;91.60;;;;;;5076759;28;20449;-68
2021/05/07 02:17:47;;;;;;;29.07;25.20;;;7.30;91.70;;;;;;5076273;28;20949;-69
2021/05/07 02:20:14;;;;;;;25.53;22.80;;;7.30;91.70;;;;;;5076707;28;20472;-68
2021/05/07 02:22:40;;;;;;;27.23;24.30;;;7.30;91.60;;;;;;5076374;28;20969;-68
2021/05/07 02:25:08;;;;;;;27.13;22.67;;;7.30;91.60;;;;;;5076628;28;20445;-68
2021/05/07 02:27:34;;;;;;;28.37;23.67;;;7.30;91.50;;;;;;5076527;28;20448;-68
2021/05/07 02:30:01;;;;;;;26.30;22.60;;;7.30;91.50;;;;;;5076466;28;20448;-68
2021/05/07 02:32:27;;;;;;;26.43;23.53;;;7.30;91.40;;;;;;5076438;28;20440;-68
2021/05/07 02:34:54;;;;;;;30.67;24.20;;;7.30;91.40;;;;;;5076303;28;20934;-68
2021/05/07 02:37:20;;;;;;;28.80;24.63;;;7.20;91.40;;;;;;5076332;28;20443;-68
2021/05/07 02:39:46;;;;;;;29.73;25.43;;;7.30;91.50;;;;;;5076211;28;20469;-68
2021/05/07 02:42:13;;;;;;;30.30;25.63;;;7.30;91.40;;;;;;5075950;28;20464;-68
2021/05/07 02:44:39;;;;;;;29.70;25.30;;;7.30;91.30;;;;;;5075754;28;20448;-68
2021/05/07 02:47:06;;;;;;;27.77;24.83;;;7.40;91.40;;;;;;5076136;28;20514;-68
2021/05/07 02:49:33;;;;;;;29.07;25.67;;;7.40;91.30;;;;;;5076084;28;20444;-68
2021/05/07 02:52:00;;;;;;;28.10;23.93;;;7.40;91.10;;;;;;5075585;28;20537;-68
2021/05/07 02:54:26;;;;;;;31.17;23.80;;;7.30;91.00;;;;;;5075663;28;20935;-68
2021/05/07 02:56:53;;;;;;;29.93;25.60;;;7.30;91.20;;;;;;5075995;28;20425;-68
2021/05/07 02:59:19;;;;;;;33.03;25.47;;;7.40;91.10;;;;;;5075806;28;20961;-68
2021/05/07 03:01:45;;;;;;;29.40;24.87;;;7.20;91.30;;;;;;5075808;28;20471;-68
2021/05/07 03:04:12;;;;;;;28.73;25.53;;;7.20;91.50;;;;;;5075814;28;20444;-68
2021/05/07 03:06:39;;;;;;;31.60;25.90;;;7.20;91.50;;;;;;5075821;28;20441;-68
2021/05/07 03:09:05;;;;;;;29.30;24.73;;;7.20;91.60;;;;;;5075440;28;20938;-68
2021/05/07 03:11:31;;;;;;;32.73;26.30;;;7.10;91.80;;;;;;5075610;28;20468;-68
2021/05/07 03:13:58;;;;;;;33.40;26.80;;;7.10;92.00;;;;;;5075632;28;20456;-68
2021/05/07 03:16:24;;;;;;;30.23;26.03;;;7.10;92.00;;;;;;5075615;28;20444;-68
2021/05/07 03:18:50;;;;;;;28.83;23.60;;;7.00;92.00;;;;;;5075538;28;20529;-68
2021/05/07 03:21:17;;;;;;;29.87;24.63;;;7.00;92.00;;;;;;5075478;28;20461;-68
2021/05/07 03:23:44;;;;;;;30.33;25.00;;;7.00;92.00;;;;;;5075753;28;20441;-68
2021/05/07 03:26:10;;;;;;;29.17;24.23;;;7.00;91.90;;;;;;5075194;28;20985;-68
2021/05/07 03:28:39;;;;;;;28.23;24.20;;;7.00;91.90;;;;;;5075620;28;20448;-68
2021/05/07 03:31:05;;;;;;;29.13;24.73;;;7.00;91.80;;;;;;5076399;28;20548;-68
2021/05/07 03:33:31;;;;;;;30.27;24.87;;;7.10;91.80;;;;;;5075516;28;20444;-68
2021/05/07 03:35:58;;;;;;;27.40;24.50;;;7.10;91.60;;;;;;5075593;28;20453;-68
2021/05/07 03:38:25;;;;;;;27.90;24.50;;;7.20;91.30;;;;;;5075115;28;20483;-68
2021/05/07 03:40:51;;;;;;;25.30;22.57;;;7.30;91.00;;;;;;5075230;28;20487;-68
2021/05/07 03:43:17;;;;;;;27.80;23.63;;;7.40;90.80;;;;;;5075269;28;20451;-68
2021/05/07 03:45:44;;;;;;;28.70;23.20;;;7.40;90.50;;;;;;5075208;28;20453;-68
2021/05/07 03:48:14;;;;;;;25.77;22.70;;;7.40;90.40;;;;;;5075301;28;20440;-68
2021/05/07 03:50:40;;;;;;;28.60;24.73;;;7.40;90.10;;;;;;5075011;28;20491;-69
2021/05/07 03:53:09;;;;;;;27.30;24.40;;;7.40;90.00;;;;;;5075076;28;20449;-68
2021/05/07 03:55:36;;;;;;;27.90;24.03;;;7.40;90.10;;;;;;5073988;28;20531;-68
2021/05/07 03:58:02;;;;;;;26.70;23.80;;;7.40;90.20;;;;;;5074411;28;20499;-68
2021/05/07 04:00:29;;;;;;;27.93;24.77;;;7.40;90.10;;;;;;5074977;28;20471;-68
2021/05/07 04:02:55;;;;;;;27.03;23.97;;;7.30;90.30;;;;;;5074361;28;20798;-68
2021/05/07 04:05:21;;;;;;;26.97;24.10;;;7.30;90.30;;;;;;5074672;28;20441;-68
2021/05/07 04:07:55;;;;;;;29.00;23.37;;;7.20;90.40;;;;;;5074655;28;20451;-68
2021/05/07 04:10:21;;;;;;;29.57;25.67;;;7.20;90.50;;;;;;5074574;28;20469;-68
2021/05/07 04:15:33;;;;;;;33.73;25.60;;;7.40;90.80;;;;;;5074830;28;20408;-68
2021/05/07 04:17:59;;;;;;;29.80;24.43;;;7.50;90.80;;;;;;5074514;28;20449;-68
2021/05/07 04:20:25;;;;;;;28.80;25.70;;;7.60;90.70;;;;;;5074343;28;20491;-68
2021/05/07 04:22:52;;;;;;;29.97;26.73;;;7.60;90.50;;;;;;5073919;28;20448;-68
2021/05/07 04:25:18;;;;;;;29.70;23.43;;;7.70;90.40;;;;;;5074249;28;20453;-68
2021/05/07 04:27:44;;;;;;;32.73;26.90;;;7.70;90.40;;;;;;5074230;28;20445;-68
2021/05/07 04:30:13;;;;;;;35.67;26.53;;;7.70;90.30;;;;;;5074498;28;20954;-68
2021/05/07 04:32:39;;;;;;;33.50;27.17;;;7.80;90.20;;;;;;5074891;28;20483;-69
2021/05/07 04:35:06;;;;;;;31.20;26.60;;;7.80;90.10;;;;;;5074235;28;20464;-68
2021/05/07 04:37:32;;;;;;;30.87;26.00;;;7.90;90.00;;;;;;5074264;28;20445;-69
2021/05/07 04:39:58;;;;;;;32.30;27.20;;;8.00;87.70;;;;;;5073855;28;20481;-69
2021/05/07 04:42:24;;;;;;;36.33;27.03;;;8.10;88.30;;;;;;5073969;28;20445;-68
2021/05/07 04:44:51;;;;;;;30.97;27.40;;;8.20;88.60;;;;;;5073753;28;20969;-68
2021/05/07 04:47:19;;;;;;;33.33;27.70;;;8.30;88.40;;;;;;5073963;28;20452;-68
2021/05/07 04:49:47;;;;;;;32.90;28.23;;;8.30;88.20;;;;;;5073725;28;20436;-68
2021/05/07 04:52:14;;;;;;;38.17;28.60;;;8.30;88.20;;;;;;5073696;28;20543;-68
2021/05/07 04:54:42;;;;;;;32.23;28.73;;;8.30;88.10;;;;;;5073471;28;20455;-69
2021/05/07 04:57:10;;;;;;;30.90;27.50;;;8.30;88.70;;;;;;5073472;28;20518;-69
2021/05/07 04:59:37;;;;;;;31.57;28.17;;;8.30;87.90;;;;;;5073476;28;20519;-69
2021/05/07 05:02:08;;;;;;;35.53;29.63;;;8.30;87.80;;;;;;5073471;28;20542;-68
2021/05/07 05:04:35;;;;;;;32.33;28.23;;;8.30;88.00;;;;;;5073809;28;20460;-65
2021/05/07 05:07:03;;;;;;;31.20;27.80;;;8.30;87.90;;;;;;5074086;28;20444;-65
2021/05/07 05:09:29;;;;;;;32.83;29.33;;;8.40;88.20;;;;;;5073828;28;20523;-66
2021/05/07 05:11:55;;;;;;;31.97;28.50;;;8.40;88.20;;;;;;5073438;28;20985;-66
2021/05/07 05:14:21;;;;;;;36.17;27.93;;;8.40;87.80;;;;;;5073756;28;20437;-66
2021/05/07 05:16:48;;;;;;;31.67;28.27;;;8.30;88.10;;;;;;5073453;28;20409;-65
2021/05/07 05:19:14;;;;;;;34.03;28.57;;;8.30;88.60;;;;;;5073297;28;20985;-66
2021/05/07 05:21:41;;;;;;;30.97;27.63;;;8.30;89.30;;;;;;5073592;28;20469;-66
2021/05/07 05:24:08;;;;;;;34.00;28.73;;;8.40;89.50;;;;;;5073711;28;20444;-65
2021/05/07 05:26:35;;;;;;;31.30;27.63;;;8.40;88.40;;;;;;5073349;28;20826;-66
2021/05/07 05:29:01;;;;;;;33.90;30.17;;;8.20;88.90;;;;;;5073632;28;20850;-66
2021/05/07 05:31:27;;;;;;;36.70;30.00;;;8.10;89.80;;;;;;5073367;28;20517;-65
2021/05/07 05:33:53;;;;;;;34.40;29.83;;;7.90;90.20;;;;;;5073491;28;20449;-67
2021/05/07 05:36:21;;;;;;;22.87;19.53;;;7.90;90.50;;;;;;5073584;28;20448;-65
2021/05/07 05:38:48;;;;;;;17.63;14.20;;;7.70;90.10;;;;;;5073357;28;20571;-66
2021/05/07 05:41:14;;;;;;;18.87;15.37;;;7.30;89.70;;;;;;5073009;28;20990;-65
2021/05/07 05:43:40;;;;;;;18.20;16.30;;;7.00;90.40;;;;;;5073618;28;20437;-65
2021/05/07 05:46:07;;;;;;;17.07;15.00;;;6.80;90.50;;;;;;5073263;28;20444;-65
2021/05/07 05:48:33;;;;;;;18.37;16.03;;;6.60;91.10;;;;;;5073236;28;20439;-65
2021/05/07 05:50:59;;;;;;;19.43;16.50;;;6.40;91.30;;;;;;5073041;28;20478;-65
2021/05/07 05:53:25;;;;;;;19.30;17.30;;;6.40;91.70;;;;;;5073074;28;20444;-65
2021/05/07 05:55:52;;;;;;;22.33;17.57;;;6.40;91.90;;;;;;5073216;28;20453;-65
2021/05/07 05:58:18;;;;;;;17.90;16.07;;;6.60;92.30;;;;;;5073239;28;20484;-65
2021/05/07 06:00:45;;;;;;;18.67;16.70;;;6.80;92.50;;;;;;5073157;28;20476;-65
2021/05/07 06:03:11;;;;;;;16.90;15.20;;;7.10;92.30;;;;;;5073126;28;20445;-66
2021/05/07 06:05:37;;;;;;;21.60;15.07;;;7.30;92.00;;;;;;5073236;28;20421;-65
2021/05/07 06:08:04;;;;;;;16.90;14.17;;;7.50;91.70;;;;;;5073161;28;20433;-65
2021/05/07 06:10:30;;;;;;;16.90;14.60;;;7.70;91.40;;;;;;5073517;28;20924;-65
2021/05/07 06:12:57;;;;;;;13.50;12.10;;;7.80;90.90;;;;;;5073205;28;20425;-65
2021/05/07 06:15:23;;;;;;;14.33;12.60;;;8.00;90.40;;;;;;5073230;28;20436;-65
2021/05/07 06:17:50;;;;;;;12.90;11.60;;;8.20;90.00;;;;;;5073619;28;20449;-66
2021/05/07 06:20:17;;;;;;;12.60;10.20;;;8.30;89.10;;;;;;5076765;28;20484;-66
2021/05/07 06:22:44;;;;;;;11.70;10.03;;;8.50;88.10;;;;;;5077034;28;20444;-66
2021/05/07 06:25:13;;;;;;;11.80;10.50;;;8.60;86.90;;;;;;5077497;28;20448;-65
2021/05/07 06:27:39;;;;;;;13.90;10.27;;;8.60;85.40;;;;;;5077905;28;20481;-66
2021/05/07 06:30:09;;;;;;;12.97;10.10;;;8.60;85.70;;;;;;5076813;28;20528;-66
2021/05/07 06:32:36;;;;;;;13.27;11.87;;;8.50;85.60;;;;;;5076727;28;20895;-65
2021/05/07 06:35:02;;;;;;;12.90;11.20;;;8.40;86.50;;;;;;5077214;28;20485;-66
2021/05/07 06:37:28;;;;;;;10.73;9.60;;;8.40;87.20;;;;;;5076469;28;20820;-65
2021/05/07 06:39:54;;;;;;;14.13;12.63;;;8.40;87.30;;;;;;5076752;28;21000;-66
2021/05/07 06:42:21;;;;;;;12.70;11.43;;;8.50;88.00;;;;;;5077004;28;20436;-65
2021/05/07 06:44:47;;;;;;;12.37;11.07;;;8.60;86.90;;;;;;5076571;28;20444;-65
2021/05/07 06:47:14;;;;;;;16.30;12.97;;;8.70;86.60;;;;;;5076256;28;20915;-66
2021/05/07 06:49:41;;;;;;;16.00;14.30;;;8.80;86.30;;;;;;5076317;28;20518;-65
2021/05/07 06:52:08;;;;;;;17.00;15.23;;;8.80;86.00;;;;;;5076448;28;20468;-64
2021/05/07 06:54:34;;;;;;;17.77;16.00;;;8.80;85.20;;;;;;5076706;28;20432;-64
2021/05/07 06:57:01;;;;;;;17.63;15.83;;;8.80;85.70;;;;;;5076784;28;20437;-64
2021/05/07 06:59:28;;;;;;;20.00;15.93;;;8.80;86.50;;;;;;5076497;28;20471;-65
2021/05/07 07:01:55;;;;;;;21.87;19.67;;;8.80;87.60;;;;;;5076432;28;20471;-64
2021/05/07 07:04:22;;;;;;;22.67;20.23;;;8.70;87.10;;;;;;5076611;28;20433;-64
2021/05/07 07:06:49;;;;;;;23.17;20.80;;;8.70;87.50;;;;;;5076930;28;20432;-64
2021/05/07 07:09:15;;;;;;;25.70;20.10;;;8.60;88.20;;;;;;5076161;28;20474;-65
2021/05/07 07:11:42;;;;;;;22.77;20.20;;;8.60;88.70;;;;;;5076121;28;20471;-64
2021/05/07 07:14:08;;;;;;;14.17;12.80;;;8.50;89.80;;;;;;5075902;28;20429;-65
2021/05/07 07:16:35;;;;;;;12.03;10.93;;;8.50;89.50;;;;;;5075522;28;20430;-65
2021/05/07 07:19:01;;;;;;;10.00;9.10;;;8.20;85.90;;;;;;5076243;28;20559;-65
2021/05/07 07:21:28;;;;;;;9.73;8.83;;;8.00;84.20;;;;;;5075486;28;20467;-65
2021/05/07 07:23:55;;;;;;;11.13;9.93;;;7.80;83.60;;;;;;5075562;28;20436;-65
2021/05/07 07:26:21;;;;;;;9.97;9.00;;;7.60;85.30;;;;;;5075293;28;20433;-65
2021/05/07 07:28:49;;;;;;;8.57;7.77;;;7.50;85.20;;;;;;5075234;28;20429;-64
2021/05/07 07:31:16;;;;;;;7.97;7.10;;;7.50;85.90;;;;;;5075997;28;20485;-65
2021/05/07 07:33:42;;;;;;;8.10;7.30;;;7.40;85.10;;;;;;5075160;28;20515;-65
2021/05/07 07:36:09;;;;;;;7.30;6.60;;;7.30;83.50;;;;;;5075258;28;20425;-64
2021/05/07 07:38:36;;;;;;;6.87;6.13;;;7.20;83.40;;;;;;5075202;28;20465;-64
2021/05/07 07:41:02;;;;;;;7.20;6.60;;;7.20;84.30;;;;;;5075106;28;20468;-65
2021/05/07 07:43:28;;;;;;;6.03;5.43;;;7.30;84.70;;;;;;5075153;28;20903;-64
2021/05/07 07:45:54;;;;;;;8.23;5.47;;;7.40;84.90;;;;;;5074768;28;20455;-64
2021/05/07 07:48:21;;;;;;;6.73;6.13;;;7.20;84.20;;;;;;5075525;28;20444;-64
2021/05/07 07:50:47;;;;;;;6.90;6.20;;;7.20;84.80;;;;;;5074735;28;20487;-64
2021/05/07 07:53:14;;;;;;;8.13;7.43;;;7.10;85.60;;;;;;5074855;28;20452;-64
2021/05/07 07:55:41;;;;;;;8.33;7.43;;;7.10;86.70;;;;;;5074874;28;20445;-65
2021/05/07 07:58:08;;;;;;;9.27;8.37;;;7.10;87.90;;;;;;5074707;28;20425;-65
2021/05/07 08:00:34;;;;;;;11.07;9.10;;;7.30;88.80;;;;;;5074649;28;20551;-65
2021/05/07 08:03:01;;;;;;;12.07;10.87;;;7.50;88.70;;;;;;5074708;28;20425;-65
2021/05/07 08:05:27;;;;;;;10.00;9.00;;;7.60;88.50;;;;;;5074524;28;20516;-65
2021/05/07 08:07:57;;;;;;;10.83;9.83;;;7.80;88.10;;;;;;5074655;28;20827;-65
2021/05/07 08:10:24;;;;;;;11.27;9.83;;;8.10;88.00;;;;;;5074471;28;20460;-65
2021/05/07 08:12:51;;;;;;;12.17;9.80;;;8.50;87.80;;;;;;5074173;28;20960;-65
2021/05/07 08:15:19;;;;;;;8.60;7.80;;;8.90;88.00;;;;;;5074261;28;20453;-65
2021/05/07 08:17:47;;;;;;;9.67;8.87;;;9.30;87.20;;;;;;5074458;28;20453;-65
2021/05/07 08:20:14;;;;;;;10.27;9.10;;;9.60;85.00;;;;;;5074723;28;20552;-66
2021/05/07 08:22:41;;;;;;;7.97;7.10;;;9.90;83.80;;;;;;5074130;28;20449;-65
2021/05/07 08:25:10;;;;;;;7.40;6.70;;;10.30;82.30;;;;;;5074088;28;20485;-65
2021/05/07 08:27:36;;;;;;;8.10;7.40;;;10.50;79.50;;;;;;5074224;28;20438;-66
2021/05/07 08:30:04;;;;;;;6.80;6.27;;;10.60;76.30;;;;;;5074142;28;20449;-66
2021/05/07 08:32:30;;;;;;;7.77;6.97;;;10.70;76.00;;;;;;5074483;28;20427;-65
2021/05/07 08:34:57;;;;;;;7.13;6.53;;;11.10;77.60;;;;;;5074074;28;20453;-65
2021/05/07 08:37:23;;;;;;;6.40;5.90;;;11.40;75.30;;;;;;5074257;28;20448;-65
2021/05/07 08:39:49;;;;;;;6.60;6.10;;;11.50;74.00;;;;;;5074279;28;20465;-66
2021/05/07 08:42:17;;;;;;;6.67;5.33;;;11.80;76.60;;;;;;5074599;28;20472;-63
2021/05/07 08:44:43;;;;;;;3.80;3.50;;;12.00;72.00;;;;;;5074161;28;20421;-64
2021/05/07 08:47:10;;;;;;;4.83;4.47;;;12.20;70.90;;;;;;5074032;28;20448;-64
2021/05/07 08:49:36;;;;;;;4.17;3.87;;;12.30;70.20;;;;;;5074063;28;20433;-63
2021/05/07 08:52:03;;;;;;;3.87;3.53;;;12.50;70.20;;;;;;5074085;28;21028;-65
2021/05/07 08:54:29;;;;;;;3.67;3.37;;;12.60;67.60;;;;;;5074597;28;20451;-66
2021/05/07 08:56:56;;;;;;;4.50;3.53;;;12.80;68.80;;;;;;5074094;28;20789;-67
2021/05/07 08:59:23;;;;;;;3.83;3.53;;;12.80;65.60;;;;;;5073958;28;20602;-66
2021/05/07 09:01:51;;;;;;;3.47;3.17;;;12.80;66.20;;;;;;5074163;28;20502;-65
2021/05/07 09:04:19;;;;;;;3.43;3.23;;;12.80;65.00;;;;;;5074274;28;20448;-66
2021/05/07 09:06:50;;;;;;;3.63;3.33;;;12.90;64.70;;;;;;5073708;28;20433;-67
2021/05/07 09:09:19;;;;;;;3.10;2.80;;;13.00;66.10;;;;;;5074262;28;20429;-67
2021/05/07 09:11:45;;;;;;;2.97;2.70;;;13.20;65.50;;;;;;5074139;28;20479;-65
2021/05/07 09:14:12;;;;;;;3.20;2.30;;;13.30;63.10;;;;;;5073641;28;20437;-67
2021/05/07 09:16:49;;;;;;;2.70;2.50;;;13.30;63.90;;;;;;5073476;28;20445;-74
2021/05/07 09:19:20;;;;;;;3.10;2.80;;;13.10;60.10;;;;;;5074127;28;20496;-67
2021/05/07 09:21:47;;;;;;;2.43;2.23;;;12.80;63.80;;;;;;5073592;28;20496;-67
2021/05/07 09:24:14;;;;;;;3.13;2.93;;;12.90;63.50;;;;;;5074157;28;20429;-65
2021/05/07 09:26:50;;;;;;;3.17;2.93;;;13.00;61.60;;;;;;5073902;28;20440;-66
2021/05/07 09:29:22;;;;;;;2.70;2.50;;;12.60;60.20;;;;;;5074403;28;20870;-66
2021/05/07 09:31:50;;;;;;;2.50;2.40;;;12.30;62.10;;;;;;5073477;28;20464;-66
2021/05/07 09:34:17;;;;;;;2.33;2.23;;;12.20;64.70;;;;;;5074601;28;20437;-66
2021/05/07 09:36:44;;;;;;;2.00;1.90;;;12.40;66.50;;;;;;5073705;28;20460;-66
2021/05/07 09:39:12;;;;;;;2.50;2.40;;;12.40;64.20;;;;;;5073002;28;20454;-66
2021/05/07 09:41:43;;;;;;;2.33;2.00;;;12.50;65.90;;;;;;5074122;28;20222;-66
2021/05/07 09:44:17;;;;;;;1.90;1.80;;;12.70;59.90;;;;;;5072973;28;20798;-66
2021/05/07 09:46:44;;;;;;;1.90;1.70;;;12.90;61.00;;;;;;5073282;28;21005;-66
2021/05/07 09:49:21;;;;;;;2.80;2.43;;;13.30;60.90;;;;;;5073668;28;20459;-66
2021/05/07 09:51:48;;;;;;;2.07;1.80;;;13.90;58.90;;;;;;5073451;28;20530;-68
2021/05/07 09:54:14;;;;;;;2.50;2.13;;;14.00;57.70;;;;;;5076372;28;20440;-66
2021/05/07 09:56:41;;;;;;;2.23;2.10;;;14.10;57.50;;;;;;5077581;28;20448;-66
2021/05/07 09:59:08;;;;;;;2.53;1.80;;;14.20;57.10;;;;;;5077035;28;20476;-66
2021/05/07 10:01:35;;;;;;;1.70;1.60;;;14.60;58.20;;;;;;5077338;28;20903;-66
2021/05/07 10:04:03;;;;;;;2.60;2.23;;;15.00;56.80;;;;;;5077305;28;20821;-66
2021/05/07 10:06:29;;;;;;;2.20;1.70;;;15.20;54.10;;;;;;5076945;28;20929;-66
2021/05/07 10:08:56;;;;;;;2.80;2.00;;;15.50;52.20;;;;;;5077703;28;20425;-66
2021/05/07 10:11:23;;;;;;;2.03;1.80;;;15.40;52.60;;;;;;5077239;28;20468;-66
2021/05/07 10:13:52;;;;;;;3.13;2.27;;;15.70;52.80;;;;;;5077036;28;20452;-66
2021/05/07 10:16:28;;;;;;;2.60;2.40;;;15.70;49.80;;;;;;5076619;28;20977;-68
2021/05/07 10:19:00;;;;;;;2.87;2.13;;;15.90;50.20;;;;;;5076707;28;20464;-68
2021/05/07 10:21:35;;;;;;;2.50;1.93;;;16.10;49.90;;;;;;5076341;28;20499;-68
2021/05/07 10:24:03;;;;;;;1.80;1.70;;;16.10;49.30;;;;;;5076438;28;20930;-66
2021/05/07 10:26:35;;;;;;;3.17;2.17;;;16.20;46.90;;;;;;5076478;28;20922;-66
2021/05/07 10:29:02;;;;;;;2.30;2.10;;;15.80;46.30;;;;;;5076295;28;20455;-66
2021/05/07 10:31:28;;;;;;;3.87;1.70;;;15.70;45.60;;;;;;5076581;28;20864;-67
2021/05/07 10:33:58;;;;;;;2.40;2.20;;;16.10;47.70;;;;;;5076755;28;20460;-67
2021/05/07 10:36:35;;;;;;;2.77;2.07;;;16.50;48.60;;;;;;5076052;28;20925;-67
2021/05/07 10:39:03;;;;;;;2.13;1.80;;;16.50;43.70;;;;;;5076411;28;20468;-67
2021/05/07 10:41:34;;;;;;;2.00;1.70;;;16.70;43.90;;;;;;5077813;28;20464;-68
2021/05/07 10:44:00;;;;;;;1.60;1.47;;;16.90;45.50;;;;;;5076146;28;20463;-69
2021/05/07 10:46:28;;;;;;;2.17;1.97;;;17.70;44.50;;;;;;5076481;28;20945;-69
2021/05/07 10:48:55;;;;;;;3.70;1.80;;;18.10;41.40;;;;;;5076416;28;20483;-69
2021/05/07 10:51:22;;;;;;;2.40;2.20;;;18.30;40.60;;;;;;5078775;28;21051;-68
2021/05/07 10:53:49;;;;;;;2.40;2.13;;;18.00;42.10;;;;;;5076283;28;20433;-69
2021/05/07 10:56:21;;;;;;;1.63;1.53;;;17.60;41.60;;;;;;5076768;28;20476;-69
2021/05/07 10:58:48;;;;;;;4.40;2.40;;;17.50;41.10;;;;;;5075983;28;20847;-69
2021/05/07 11:01:20;;;;;;;3.77;1.70;;;17.70;40.00;;;;;;5076534;28;20469;-69
2021/05/07 11:03:58;;;;;;;1.80;1.70;;;17.70;40.60;;;;;;5075386;28;20791;-71
2021/05/07 11:06:28;;;;;;;3.80;2.20;;;17.40;41.50;;;;;;5075854;28;20428;-71
2021/05/07 11:08:55;;;;;;;2.60;2.23;;;16.30;41.00;;;;;;5075593;28;20476;-69
2021/05/07 11:11:22;;;;;;;3.20;2.67;;;15.50;44.20;;;;;;5075805;28;20461;-68
2021/05/07 11:13:48;;;;;;;2.40;2.20;;;14.90;46.00;;;;;;5075732;28;20425;-69
2021/05/07 11:16:14;;;;;;;3.30;2.60;;;14.70;48.80;;;;;;5075669;28;20449;-69
2021/05/07 11:18:46;;;;;;;3.20;2.40;;;15.40;45.20;;;;;;5075671;28;20448;-69
2021/05/07 11:21:14;;;;;;;2.00;1.80;;;16.00;44.00;;;;;;5075865;28;20465;-71
2021/05/07 11:23:40;;;;;;;2.80;2.10;;;16.00;43.60;;;;;;5075391;28;20433;-70
2021/05/07 11:26:09;;;;;;;2.27;1.90;;;16.80;43.50;;;;;;5075493;28;20453;-70
2021/05/07 11:28:44;;;;;;;3.40;2.10;;;17.60;40.50;;;;;;5075639;28;20456;-70
2021/05/07 11:31:11;;;;;;;1.90;1.80;;;18.20;41.00;;;;;;5075382;28;20468;-69
2021/05/07 11:33:42;;;;;;;3.67;2.10;;;19.40;38.70;;;;;;5075095;28;20925;-69
2021/05/07 11:36:10;;;;;;;2.40;2.20;;;20.30;34.80;;;;;;5075285;28;20425;-70
2021/05/07 11:38:37;;;;;;;6.33;2.57;;;20.90;35.00;;;;;;5075205;28;20429;-70
2021/05/07 11:41:03;;;;;;;1.83;1.73;;;21.10;34.80;;;;;;5075110;28;20464;-70
2021/05/07 11:43:30;;;;;;;2.13;1.93;;;21.30;31.70;;;;;;5074938;28;20816;-70
2021/05/07 11:46:04;;;;;;;1.97;1.87;;;21.60;32.10;;;;;;5075080;28;20516;-70
2021/05/07 11:48:31;;;;;;;1.83;1.73;;;21.40;32.00;;;;;;5074570;28;20800;-70
2021/05/07 11:50:58;;;;;;;2.03;1.80;;;21.60;31.50;;;;;;5074950;28;20477;-69
2021/05/07 11:53:24;;;;;;;2.00;1.60;;;22.10;31.10;;;;;;5075481;28;20461;-70
2021/05/07 11:55:50;;;;;;;2.23;1.77;;;22.60;32.00;;;;;;5075313;28;20425;-71
2021/05/07 11:58:17;;;;;;;2.30;2.00;;;23.00;29.80;;;;;;5074820;28;20444;-70
2021/05/07 12:00:44;;;;;;;2.37;2.20;;;22.90;28.80;;;;;;5074640;28;20856;-70
2021/05/07 12:03:14;;;;;;;1.80;1.70;;;22.40;29.40;;;;;;5074839;28;20794;-72
2021/05/07 12:05:41;;;;;;;1.97;1.87;;;21.80;29.00;;;;;;5074729;28;20468;-72
2021/05/07 12:08:09;;;;;;;2.43;2.20;;;21.20;33.00;;;;;;5074650;28;20799;-69
2021/05/07 12:10:36;;;;;;;2.00;1.90;;;21.30;33.60;;;;;;5074640;28;20475;-69
2021/05/07 12:13:03;;;;;;;2.50;2.30;;;21.00;30.90;;;;;;5074698;28;20438;-69
2021/05/07 12:15:41;;;;;;;4.40;2.27;;;20.80;30.90;;;;;;5073666;28;20535;-69
2021/05/07 12:18:16;;;;;;;4.23;2.17;;;21.10;32.20;;;;;;5074560;28;20417;-69
2021/05/07 12:20:44;;;;;;;2.90;2.60;;;21.60;30.60;;;;;;5074486;28;20515;-69
2021/05/07 12:23:11;;;;;;;4.67;3.63;;;22.20;30.50;;;;;;5074640;28;20460;-69
2021/05/07 12:25:41;;;;;;;3.70;2.27;;;23.10;30.60;;;;;;5074507;28;20562;-70
2021/05/07 12:28:13;;;;;;;3.83;2.60;;;23.90;28.90;;;;;;5074480;28;20425;-71
2021/05/07 12:30:43;;;;;;;3.23;2.80;;;23.70;27.30;;;;;;5074235;28;20460;-70
2021/05/07 12:33:13;;;;;;;4.40;2.40;;;22.60;28.70;;;;;;5074197;28;20440;-70
2021/05/07 12:35:43;;;;;;;6.80;2.90;;;21.60;29.90;;;;;;5074900;28;20449;-70
2021/05/07 12:38:29;;;;;;;3.33;2.70;;;20.70;30.50;;;;;;5074354;28;20473;-69
2021/05/07 12:40:57;;;;;;;3.40;2.77;;;20.60;31.50;;;;;;5073960;28;20488;-70
2021/05/07 12:43:24;;;;;;;2.57;2.47;;;21.30;31.00;;;;;;5073832;28;20436;-70